createdAt,value
2023-04-29T00:00:46.984Z,12.77
2023-04-29T00:01:49.662Z,12.84
2023-04-29T00:02:51.963Z,12.81
2023-04-29T00:03:54.820Z,12.79
2023-04-29T00:04:58.016Z,12.80
2023-04-29T00:06:01.275Z,12.84
2023-04-29T00:07:03.839Z,12.83
2023-04-29T00:08:06.466Z,12.89
2023-04-29T00:09:08.836Z,12.88
2023-04-29T00:10:14.811Z,12.82
2023-04-29T00:11:17.053Z,12.84
2023-04-29T00:12:19.231Z,12.83
2023-04-29T00:13:21.628Z,12.83
2023-04-29T00:14:24.652Z,12.87
2023-04-29T00:15:27.324Z,12.91
2023-04-29T00:16:29.550Z,12.85
2023-04-29T00:17:31.799Z,12.91
2023-04-29T00:18:34.204Z,12.99
2023-04-29T00:19:36.438Z,12.89
2023-04-29T00:20:39.648Z,12.81
2023-04-29T00:21:42.227Z,12.81
2023-04-29T00:22:45.183Z,12.80
2023-04-29T00:23:47.747Z,12.75
2023-04-29T00:24:50.710Z,12.66
2023-04-29T00:25:53.591Z,12.63
2023-04-29T00:26:56.069Z,12.62
2023-04-29T00:28:01.942Z,12.55
2023-04-29T00:29:04.151Z,12.53
2023-04-29T00:30:10.117Z,12.56
2023-04-29T00:31:13.133Z,12.67
2023-04-29T00:32:15.422Z,12.64
2023-04-29T00:33:17.794Z,12.65
2023-04-29T00:34:20.604Z,12.59
2023-04-29T00:35:23.431Z,12.58
2023-04-29T00:36:26.348Z,12.58
2023-04-29T00:37:28.963Z,12.58
2023-04-29T00:38:31.476Z,12.67
2023-04-29T00:39:34.095Z,12.74
2023-04-29T00:40:36.869Z,12.67
2023-04-29T00:41:39.244Z,12.65
2023-04-29T00:42:42.523Z,12.66
2023-04-29T00:43:44.811Z,12.68
2023-04-29T00:44:47.081Z,12.74
2023-04-29T00:45:49.457Z,12.70
2023-04-29T00:46:51.641Z,12.65
2023-04-29T00:47:53.846Z,12.65
2023-04-29T00:48:56.578Z,12.66
2023-04-29T00:49:59.151Z,12.77
2023-04-29T00:51:02.258Z,12.70
2023-04-29T00:52:05.039Z,12.77
2023-04-29T00:53:07.643Z,12.74
2023-04-29T00:56:42.164Z,12.67
2023-04-29T00:57:48.359Z,12.81
2023-04-29T00:58:52.896Z,12.82
2023-04-29T00:59:57.603Z,12.74
2023-04-29T01:01:00.940Z,12.79
2023-04-29T01:02:04.627Z,12.73
2023-04-29T01:03:08.992Z,12.80
2023-04-29T01:04:12.807Z,12.74
2023-04-29T01:05:15.486Z,12.73
2023-04-29T01:06:35.881Z,12.71
2023-04-29T01:07:48.919Z,12.70
2023-04-29T01:08:57.400Z,12.75
2023-04-29T01:10:19.962Z,12.73
2023-04-29T01:11:24.506Z,12.71
2023-04-29T01:12:37.054Z,12.64
2023-04-29T01:13:59.146Z,12.66
2023-04-29T01:15:22.983Z,12.73
2023-04-29T01:16:53.120Z,12.71
2023-04-29T01:17:58.391Z,12.73
2023-04-29T01:19:15.665Z,12.83
2023-04-29T01:20:19.189Z,12.82
2023-04-29T01:21:22.294Z,12.76
2023-04-29T01:22:24.761Z,12.69
2023-04-29T01:23:28.366Z,12.69
2023-04-29T01:24:31.440Z,12.72
2023-04-29T01:25:34.261Z,12.77
2023-04-29T01:26:59.285Z,12.78
2023-04-29T01:28:36.167Z,12.92
2023-04-29T01:29:53.741Z,12.92
2023-04-29T01:31:30.588Z,13.01
2023-04-29T01:32:43.662Z,12.99
2023-04-29T01:34:08.080Z,12.91
2023-04-29T01:35:41.055Z,13.02
2023-04-29T01:37:02.711Z,12.88
2023-04-29T01:38:29.742Z,12.88
2023-04-29T01:39:46.810Z,12.92
2023-04-29T01:41:00.739Z,12.90
2023-04-29T01:42:15.065Z,12.84
2023-04-29T01:43:19.973Z,12.77
2023-04-29T01:44:29.259Z,12.60
2023-04-29T01:45:34.994Z,12.57
2023-04-29T01:46:38.722Z,12.58
2023-04-29T01:47:43.134Z,12.64
2023-04-29T01:48:46.412Z,12.61
2023-04-29T01:49:49.806Z,12.63
2023-04-29T01:50:52.144Z,12.68
2023-04-29T01:51:55.058Z,12.75
2023-04-29T01:52:57.497Z,12.75
2023-04-29T01:53:59.936Z,12.74
2023-04-29T01:55:03.618Z,12.75
2023-04-29T01:56:17.362Z,12.66
2023-04-29T01:57:34.600Z,12.61
2023-04-29T01:58:59.642Z,12.64
2023-04-29T02:00:20.525Z,12.67
2023-04-29T02:01:26.776Z,12.73
2023-04-29T02:02:29.589Z,12.77
2023-04-29T02:03:43.188Z,12.84
2023-04-29T02:04:47.146Z,12.77
2023-04-29T02:05:50.563Z,12.74
2023-04-29T02:06:53.094Z,12.78
2023-04-29T02:07:55.506Z,12.81
2023-04-29T02:08:58.888Z,12.84
2023-04-29T02:10:01.309Z,12.83
2023-04-29T02:11:04.316Z,12.79
2023-04-29T02:12:10.164Z,12.78
2023-04-29T02:13:13.577Z,12.81
2023-04-29T02:14:17.626Z,12.82
2023-04-29T02:15:20.492Z,12.83
2023-04-29T02:16:22.972Z,12.84
2023-04-29T02:17:31.279Z,12.82
2023-04-29T02:18:33.526Z,12.83
2023-04-29T02:19:36.293Z,12.81
2023-04-29T02:20:39.528Z,12.82
2023-04-29T02:21:42.059Z,12.89
2023-04-29T02:22:44.622Z,12.85
2023-04-29T02:23:46.940Z,12.81
2023-04-29T02:24:49.411Z,12.83
2023-04-29T02:25:52.112Z,12.86
2023-04-29T02:26:54.631Z,12.75
2023-04-29T02:27:56.916Z,12.80
2023-04-29T02:28:59.320Z,12.78
2023-04-29T02:30:02.582Z,12.78
2023-04-29T02:31:04.908Z,12.74
2023-04-29T02:32:07.715Z,12.77
2023-04-29T02:33:10.047Z,12.84
2023-04-29T02:34:12.262Z,12.89
2023-04-29T02:35:14.677Z,12.86
2023-04-29T02:36:18.277Z,12.95
2023-04-29T02:37:20.686Z,12.99
2023-04-29T02:38:23.105Z,12.89
2023-04-29T02:39:25.309Z,12.89
2023-04-29T02:40:30.686Z,12.85
2023-04-29T02:41:34.490Z,12.81
2023-04-29T02:42:36.951Z,12.86
2023-04-29T02:43:39.548Z,12.94
2023-04-29T02:44:42.574Z,12.93
2023-04-29T02:45:44.931Z,13.01
2023-04-29T02:46:47.885Z,13.04
2023-04-29T02:47:50.407Z,13.08
2023-04-29T02:48:53.183Z,13.12
2023-04-29T02:49:55.502Z,13.07
2023-04-29T02:51:24.131Z,13.10
2023-04-29T02:52:26.647Z,13.07
2023-04-29T02:53:28.897Z,13.05
2023-04-29T02:54:31.820Z,13.09
2023-04-29T02:55:34.237Z,13.07
2023-04-29T02:56:42.826Z,13.14
2023-04-29T02:57:45.087Z,13.18
2023-04-29T02:58:47.366Z,13.20
2023-04-29T02:59:49.968Z,13.16
2023-04-29T03:00:52.463Z,13.19
2023-04-29T03:01:54.857Z,13.19
2023-04-29T03:02:57.738Z,13.17
2023-04-29T03:04:00.781Z,13.17
2023-04-29T03:05:04.775Z,13.17
2023-04-29T03:06:06.960Z,13.25
2023-04-29T03:07:09.941Z,13.22
2023-04-29T03:08:12.539Z,13.34
2023-04-29T03:09:15.008Z,13.38
2023-04-29T03:10:20.741Z,13.39
2023-04-29T03:11:24.904Z,13.33
2023-04-29T03:12:27.229Z,13.26
2023-04-29T03:13:29.608Z,13.13
2023-04-29T03:14:31.891Z,13.16
2023-04-29T03:15:34.397Z,13.19
2023-04-29T03:16:36.643Z,13.11
2023-04-29T03:17:38.948Z,13.07
2023-04-29T03:18:41.407Z,13.16
2023-04-29T03:19:43.816Z,13.08
2023-04-29T03:20:46.200Z,12.97
2023-04-29T03:21:48.417Z,13.01
2023-04-29T03:22:50.724Z,12.99
2023-04-29T03:23:52.930Z,13.05
2023-04-29T03:25:02.621Z,13.11
2023-04-29T03:26:05.773Z,13.08
2023-04-29T03:27:08.235Z,12.99
2023-04-29T03:28:10.822Z,12.95
2023-04-29T03:29:13.816Z,12.94
2023-04-29T03:30:16.923Z,12.90
2023-04-29T03:31:25.618Z,12.84
2023-04-29T03:32:28.111Z,12.88
2023-04-29T03:33:30.584Z,12.85
2023-04-29T03:34:33.138Z,12.92
2023-04-29T03:35:52.666Z,12.79
2023-04-29T03:37:07.315Z,12.79
2023-04-29T03:38:12.628Z,12.77
2023-04-29T03:39:15.080Z,12.77
2023-04-29T03:40:18.301Z,12.82
2023-04-29T03:41:23.194Z,12.88
2023-04-29T03:42:25.992Z,12.88
2023-04-29T03:43:28.294Z,12.86
2023-04-29T03:44:31.011Z,12.88
2023-04-29T03:45:33.307Z,12.91
2023-04-29T03:46:36.228Z,12.87
2023-04-29T03:47:38.933Z,12.89
2023-04-29T03:48:41.235Z,12.88
2023-04-29T03:49:44.765Z,12.94
2023-04-29T03:50:47.362Z,12.88
2023-04-29T03:51:49.595Z,12.82
2023-04-29T03:52:53.098Z,12.84
2023-04-29T03:53:59.370Z,12.83
2023-04-29T03:55:02.763Z,12.93
2023-04-29T03:56:05.429Z,12.83
2023-04-29T03:57:07.931Z,12.90
2023-04-29T03:58:10.546Z,12.99
2023-04-29T03:59:13.099Z,13.01
2023-04-29T04:00:17.320Z,13.00
2023-04-29T04:01:21.938Z,12.94
2023-04-29T04:02:24.587Z,12.90
2023-04-29T04:03:28.364Z,12.93
2023-04-29T04:04:33.202Z,12.92
2023-04-29T04:05:35.653Z,12.99
2023-04-29T04:06:44.259Z,12.95
2023-04-29T04:07:48.138Z,13.05
2023-04-29T04:09:21.536Z,12.95
2023-04-29T04:10:24.033Z,12.94
2023-04-29T04:11:26.618Z,12.95
2023-04-29T04:12:47.633Z,12.99
2023-04-29T04:13:52.098Z,13.04
2023-04-29T04:14:55.734Z,13.07
2023-04-29T04:15:58.140Z,13.06
2023-04-29T04:17:01.445Z,13.08
2023-04-29T04:18:21.714Z,13.04
2023-04-29T04:19:23.946Z,13.16
2023-04-29T04:20:26.556Z,13.15
2023-04-29T04:21:30.195Z,13.16
2023-04-29T04:22:40.320Z,13.28
2023-04-29T04:23:51.385Z,13.30
2023-04-29T04:24:57.632Z,13.21
2023-04-29T04:26:00.262Z,13.17
2023-04-29T04:27:22.978Z,13.32
2023-04-29T04:28:25.840Z,13.33
2023-04-29T04:29:38.938Z,13.37
2023-04-29T04:30:51.952Z,13.24
2023-04-29T04:31:54.397Z,13.17
2023-04-29T04:32:57.853Z,13.14
2023-04-29T04:34:00.471Z,13.20
2023-04-29T04:35:08.337Z,13.29
2023-04-29T04:36:11.009Z,13.33
2023-04-29T04:37:13.806Z,13.38
2023-04-29T04:38:18.510Z,13.39
2023-04-29T04:39:21.003Z,13.46
2023-04-29T04:40:23.996Z,13.48
2023-04-29T04:41:52.031Z,13.46
2023-04-29T04:42:55.324Z,13.40
2023-04-29T04:44:17.489Z,13.30
2023-04-29T04:45:33.485Z,13.36
2023-04-29T04:46:36.908Z,13.31
2023-04-29T04:47:49.010Z,13.34
2023-04-29T04:48:56.877Z,13.43
2023-04-29T04:49:59.109Z,13.41
2023-04-29T04:51:09.041Z,13.46
2023-04-29T04:52:12.075Z,13.44
2023-04-29T04:53:14.396Z,13.45
2023-04-29T04:54:30.990Z,13.48
2023-04-29T04:55:42.667Z,13.52
2023-04-29T04:56:45.381Z,13.61
2023-04-29T04:57:47.721Z,13.58
2023-04-29T04:58:50.274Z,13.64
2023-04-29T04:59:52.917Z,13.56
2023-04-29T05:00:55.446Z,13.46
2023-04-29T05:01:57.751Z,13.47
2023-04-29T05:03:00.432Z,13.52
2023-04-29T05:04:03.372Z,13.48
2023-04-29T05:05:06.977Z,13.58
2023-04-29T05:06:11.692Z,13.64
2023-04-29T05:07:16.218Z,13.64
2023-04-29T05:08:44.540Z,13.65
2023-04-29T05:09:46.933Z,13.66
2023-04-29T05:10:49.333Z,13.59
2023-04-29T05:11:51.705Z,13.63
2023-04-29T05:12:54.396Z,13.60
2023-04-29T05:13:56.843Z,13.71
2023-04-29T05:14:59.360Z,13.76
2023-04-29T05:16:06.521Z,13.81
2023-04-29T05:17:11.265Z,13.83
2023-04-29T05:18:13.780Z,13.89
2023-04-29T05:19:19.892Z,13.95
2023-04-29T05:20:22.563Z,13.91
2023-04-29T05:21:24.786Z,13.92
2023-04-29T05:22:27.612Z,13.89
2023-04-29T05:23:30.062Z,13.90
2023-04-29T05:24:32.843Z,13.85
2023-04-29T05:25:35.870Z,13.80
2023-04-29T05:26:38.812Z,13.78
2023-04-29T05:27:42.405Z,13.78
2023-04-29T05:28:49.785Z,13.79
2023-04-29T05:29:54.156Z,13.83
2023-04-29T05:30:56.776Z,13.79
2023-04-29T05:31:59.350Z,13.76
2023-04-29T05:33:01.765Z,13.74
2023-04-29T05:34:07.202Z,13.73
2023-04-29T05:35:09.611Z,13.70
2023-04-29T05:36:12.006Z,13.69
2023-04-29T05:37:14.282Z,13.73
2023-04-29T05:38:34.015Z,13.80
2023-04-29T05:39:41.085Z,13.79
2023-04-29T05:40:50.324Z,13.82
2023-04-29T05:42:12.739Z,13.88
2023-04-29T05:43:20.682Z,13.92
2023-04-29T05:44:23.145Z,13.91
2023-04-29T05:45:25.656Z,14.02
2023-04-29T05:46:27.859Z,14.11
2023-04-29T05:47:31.614Z,14.04
2023-04-29T05:48:33.940Z,14.05
2023-04-29T05:49:36.230Z,14.13
2023-04-29T05:50:38.954Z,14.12
2023-04-29T05:51:41.696Z,14.12
2023-04-29T05:52:47.432Z,14.20
2023-04-29T05:53:49.782Z,14.20
2023-04-29T05:54:52.203Z,14.12
2023-04-29T05:55:55.040Z,14.03
2023-04-29T05:56:57.502Z,14.09
2023-04-29T05:57:59.794Z,14.11
2023-04-29T05:59:02.253Z,14.20
2023-04-29T06:00:06.638Z,14.33
2023-04-29T06:01:17.481Z,14.38
2023-04-29T06:02:21.423Z,14.39
2023-04-29T06:03:24.342Z,14.33
2023-04-29T06:04:47.943Z,14.35
2023-04-29T06:06:05.779Z,14.39
2023-04-29T06:07:15.449Z,14.54
2023-04-29T06:08:33.929Z,14.51
2023-04-29T06:09:47.552Z,14.48
2023-04-29T06:10:52.368Z,14.46
2023-04-29T06:11:55.355Z,14.45
2023-04-29T06:12:59.038Z,14.48
2023-04-29T06:14:04.393Z,14.50
2023-04-29T06:15:15.679Z,14.54
2023-04-29T06:16:18.304Z,14.50
2023-04-29T06:17:20.957Z,14.64
2023-04-29T06:18:23.498Z,14.72
2023-04-29T06:19:25.821Z,14.72
2023-04-29T06:20:28.806Z,14.68
2023-04-29T06:21:31.643Z,14.72
2023-04-29T06:22:35.965Z,14.86
2023-04-29T06:23:40.094Z,14.87
2023-04-29T06:24:50.854Z,14.90
2023-04-29T06:26:01.487Z,14.85
2023-04-29T06:27:04.605Z,14.80
2023-04-29T06:28:08.512Z,14.81
2023-04-29T06:29:12.772Z,14.83
2023-04-29T06:30:16.349Z,14.82
2023-04-29T06:31:19.098Z,14.89
2023-04-29T06:32:22.894Z,14.86
2023-04-29T06:33:26.407Z,14.80
2023-04-29T06:34:28.943Z,14.90
2023-04-29T06:35:59.347Z,14.89
2023-04-29T06:37:28.801Z,14.90
2023-04-29T06:38:49.354Z,14.75
2023-04-29T06:40:10.944Z,14.66
2023-04-29T06:41:28.378Z,14.63
2023-04-29T06:42:30.559Z,14.60
2023-04-29T06:43:51.529Z,14.57
2023-04-29T06:45:11.870Z,14.68
2023-04-29T06:46:37.368Z,14.75
2023-04-29T06:47:48.332Z,14.74
2023-04-29T06:49:01.902Z,14.79
2023-04-29T06:50:07.389Z,14.75
2023-04-29T06:51:09.613Z,14.70
2023-04-29T06:52:14.125Z,14.76
2023-04-29T06:53:18.861Z,14.89
2023-04-29T06:54:21.571Z,14.91
2023-04-29T06:55:26.343Z,14.94
2023-04-29T06:56:28.536Z,14.99
2023-04-29T06:57:32.180Z,15.02
2023-04-29T06:58:34.476Z,15.07
2023-04-29T06:59:36.800Z,14.97
2023-04-29T07:00:39.663Z,14.94
2023-04-29T07:01:44.193Z,14.90
2023-04-29T07:02:47.438Z,14.82
2023-04-29T07:03:49.812Z,14.80
2023-04-29T07:04:54.744Z,14.95
2023-04-29T07:05:58.478Z,15.01
2023-04-29T07:07:00.935Z,15.05
2023-04-29T07:08:03.402Z,15.06
2023-04-29T07:09:05.930Z,15.12
2023-04-29T07:10:08.503Z,15.15
2023-04-29T07:11:11.170Z,15.31
2023-04-29T07:12:14.883Z,15.45
2023-04-29T07:13:17.163Z,15.52
2023-04-29T07:14:19.760Z,15.55
2023-04-29T07:15:22.024Z,15.54
2023-04-29T07:16:26.755Z,15.53
2023-04-29T07:17:31.053Z,15.56
2023-04-29T07:18:33.501Z,15.62
2023-04-29T07:20:01.584Z,15.61
2023-04-29T07:21:03.899Z,15.69
2023-04-29T07:22:06.298Z,15.73
2023-04-29T07:23:08.558Z,15.84
2023-04-29T07:24:11.140Z,15.79
2023-04-29T07:25:14.447Z,15.91
2023-04-29T07:26:18.218Z,15.86
2023-04-29T07:27:21.405Z,15.80
2023-04-29T07:28:23.843Z,15.84
2023-04-29T07:29:28.364Z,15.79
2023-04-29T07:30:31.083Z,15.83
2023-04-29T07:31:34.336Z,15.82
2023-04-29T07:32:39.367Z,15.69
2023-04-29T07:33:41.842Z,15.62
2023-04-29T07:34:46.453Z,15.62
2023-04-29T07:35:49.096Z,15.60
2023-04-29T07:36:51.589Z,15.65
2023-04-29T07:37:53.856Z,15.82
2023-04-29T07:38:56.481Z,15.78
2023-04-29T07:39:58.777Z,15.80
2023-04-29T07:41:01.307Z,15.77
2023-04-29T07:42:04.785Z,15.83
2023-04-29T07:43:09.389Z,15.89
2023-04-29T07:44:11.733Z,15.71
2023-04-29T07:45:15.150Z,15.66
2023-04-29T07:46:18.370Z,15.83
2023-04-29T07:47:21.122Z,15.85
2023-04-29T07:48:23.690Z,15.98
2023-04-29T07:49:26.356Z,15.95
2023-04-29T07:50:30.295Z,15.89
2023-04-29T07:51:32.942Z,15.84
2023-04-29T07:52:35.378Z,15.77
2023-04-29T07:53:37.587Z,15.76
2023-04-29T07:54:39.860Z,15.82
2023-04-29T07:55:42.370Z,15.75
2023-04-29T07:56:44.667Z,15.74
2023-04-29T07:57:47.110Z,15.70
2023-04-29T07:58:49.337Z,15.54
2023-04-29T07:59:53.406Z,15.42
2023-04-29T08:00:55.996Z,15.39
2023-04-29T08:01:58.833Z,15.38
2023-04-29T08:03:02.313Z,15.24
2023-04-29T08:04:04.899Z,15.22
2023-04-29T08:05:16.114Z,15.30
2023-04-29T08:06:22.203Z,15.29
2023-04-29T08:07:24.869Z,15.23
2023-04-29T08:08:30.023Z,15.19
2023-04-29T08:09:34.357Z,15.24
2023-04-29T08:10:43.194Z,15.20
2023-04-29T08:11:45.875Z,15.18
2023-04-29T08:12:53.110Z,15.16
2023-04-29T08:13:59.321Z,15.23
2023-04-29T08:15:01.742Z,15.31
2023-04-29T08:16:04.265Z,15.34
2023-04-29T08:17:08.325Z,15.45
2023-04-29T08:18:10.854Z,15.44
2023-04-29T08:19:13.298Z,15.49
2023-04-29T08:20:16.237Z,15.68
2023-04-29T08:21:19.330Z,15.79
2023-04-29T08:22:22.299Z,15.82
2023-04-29T08:23:24.562Z,15.96
2023-04-29T08:24:27.220Z,15.97
2023-04-29T08:25:30.258Z,16.07
2023-04-29T08:26:32.645Z,16.09
2023-04-29T08:27:34.870Z,16.16
2023-04-29T08:28:37.063Z,16.15
2023-04-29T08:29:39.614Z,16.12
2023-04-29T08:30:41.975Z,16.05
2023-04-29T08:31:44.527Z,16.04
2023-04-29T08:32:47.157Z,16.01
2023-04-29T08:33:49.892Z,16.02
2023-04-29T08:34:53.416Z,16.06
2023-04-29T08:36:03.848Z,16.12
2023-04-29T08:37:06.407Z,16.13
2023-04-29T08:38:10.043Z,16.07
2023-04-29T08:39:12.424Z,16.11
2023-04-29T08:40:14.843Z,16.03
2023-04-29T08:41:17.343Z,15.87
2023-04-29T08:42:30.419Z,15.69
2023-04-29T08:43:35.760Z,15.60
2023-04-29T08:44:41.234Z,15.67
2023-04-29T08:45:44.059Z,15.63
2023-04-29T08:46:47.423Z,15.56
2023-04-29T08:47:51.424Z,15.55
2023-04-29T08:48:56.525Z,15.41
2023-04-29T08:50:04.436Z,15.37
2023-04-29T08:51:07.486Z,15.29
2023-04-29T08:52:09.935Z,15.21
2023-04-29T08:53:13.847Z,15.09
2023-04-29T08:54:16.192Z,15.13
2023-04-29T08:55:19.140Z,15.13
2023-04-29T08:56:22.192Z,15.21
2023-04-29T08:57:28.352Z,15.27
2023-04-29T08:58:34.810Z,15.12
2023-04-29T08:59:37.338Z,15.10
2023-04-29T09:00:41.780Z,15.17
2023-04-29T09:01:50.538Z,15.20
2023-04-29T09:02:57.077Z,15.17
2023-04-29T09:04:21.378Z,15.20
2023-04-29T09:05:24.453Z,15.21
2023-04-29T09:06:27.200Z,15.18
2023-04-29T09:07:31.970Z,15.20
2023-04-29T09:08:44.351Z,15.30
2023-04-29T09:09:47.611Z,15.39
2023-04-29T09:10:51.527Z,15.42
2023-04-29T09:11:55.362Z,15.43
2023-04-29T09:13:00.867Z,15.53
2023-04-29T09:14:04.687Z,15.49
2023-04-29T09:15:07.350Z,15.45
2023-04-29T09:16:13.170Z,15.32
2023-04-29T09:17:16.513Z,15.23
2023-04-29T09:18:44.846Z,15.16
2023-04-29T09:19:47.089Z,15.15
2023-04-29T09:20:49.309Z,15.12
2023-04-29T09:21:56.655Z,15.12
2023-04-29T09:23:04.096Z,15.12
2023-04-29T09:24:06.545Z,14.95
2023-04-29T09:25:13.000Z,14.84
2023-04-29T09:26:16.304Z,14.79
2023-04-29T09:27:29.263Z,14.73
2023-04-29T09:28:31.841Z,14.57
2023-04-29T09:29:40.482Z,14.44
2023-04-29T09:30:48.674Z,14.48
2023-04-29T09:31:54.200Z,14.47
2023-04-29T09:33:08.372Z,14.59
2023-04-29T09:34:12.050Z,14.58
2023-04-29T09:35:27.826Z,14.71
2023-04-29T09:36:39.149Z,14.78
2023-04-29T09:37:42.101Z,14.94
2023-04-29T09:38:58.214Z,15.00
2023-04-29T09:40:01.150Z,14.96
2023-04-29T09:41:12.210Z,14.99
2023-04-29T09:42:14.793Z,15.07
2023-04-29T09:43:18.625Z,15.24
2023-04-29T09:44:34.287Z,15.37
2023-04-29T09:45:41.745Z,15.52
2023-04-29T09:46:44.139Z,15.62
2023-04-29T09:47:46.816Z,15.75
2023-04-29T09:48:49.130Z,15.90
2023-04-29T09:49:52.810Z,15.84
2023-04-29T09:51:03.272Z,15.69
2023-04-29T09:52:16.897Z,15.73
2023-04-29T09:53:30.184Z,15.78
2023-04-29T09:54:34.323Z,15.86
2023-04-29T09:55:37.267Z,15.93
2023-04-29T09:56:53.366Z,15.92
2023-04-29T09:57:56.302Z,15.98
2023-04-29T09:59:09.098Z,16.04
2023-04-29T10:00:13.506Z,15.87
2023-04-29T10:01:19.643Z,15.69
2023-04-29T10:02:23.962Z,15.57
2023-04-29T10:03:32.225Z,15.57
2023-04-29T10:04:36.661Z,15.71
2023-04-29T10:05:41.966Z,15.79
2023-04-29T10:06:45.938Z,15.78
2023-04-29T10:07:50.297Z,15.70
2023-04-29T10:08:53.053Z,15.73
2023-04-29T10:09:57.183Z,15.72
2023-04-29T10:11:04.398Z,15.67
2023-04-29T10:12:07.796Z,15.61
2023-04-29T10:13:10.189Z,15.47
2023-04-29T10:14:18.059Z,15.27
2023-04-29T10:15:50.390Z,15.14
2023-04-29T10:17:21.920Z,15.18
2023-04-29T10:18:35.931Z,15.22
2023-04-29T10:20:02.624Z,15.29
2023-04-29T10:21:27.137Z,15.39
2023-04-29T10:22:52.016Z,15.24
2023-04-29T10:23:56.705Z,15.06
2023-04-29T10:25:01.405Z,14.66
2023-04-29T10:26:05.706Z,14.41
2023-04-29T10:27:16.858Z,14.14
2023-04-29T10:28:22.544Z,14.00
2023-04-29T10:29:27.541Z,13.87
2023-04-29T10:30:31.193Z,13.78
2023-04-29T10:31:35.587Z,13.81
2023-04-29T10:32:50.347Z,13.83
2023-04-29T10:33:58.038Z,13.86
2023-04-29T10:35:00.809Z,13.91
2023-04-29T10:36:03.675Z,14.07
2023-04-29T10:37:16.887Z,14.25
2023-04-29T10:38:29.876Z,14.41
2023-04-29T10:39:47.836Z,14.58
2023-04-29T10:40:53.597Z,14.74
2023-04-29T10:41:56.925Z,14.77
2023-04-29T10:42:59.656Z,14.64
2023-04-29T10:44:04.076Z,14.60
2023-04-29T10:45:31.714Z,14.52
2023-04-29T10:46:34.429Z,14.62
2023-04-29T10:47:36.718Z,14.72
2023-04-29T10:48:39.220Z,14.50
2023-04-29T10:50:02.190Z,14.52
2023-04-29T10:51:04.745Z,14.36
2023-04-29T10:52:07.077Z,14.33
2023-04-29T10:53:09.459Z,14.30
2023-04-29T10:54:25.969Z,14.18
2023-04-29T10:55:28.662Z,14.15
2023-04-29T10:56:40.808Z,13.98
2023-04-29T10:57:43.351Z,13.95
2023-04-29T10:58:46.966Z,13.93
2023-04-29T10:59:49.632Z,13.66
2023-04-29T11:00:53.793Z,13.67
2023-04-29T11:01:56.703Z,13.71
2023-04-29T11:03:05.711Z,13.73
2023-04-29T11:04:08.712Z,13.74
2023-04-29T11:05:12.797Z,13.73
2023-04-29T11:06:16.004Z,13.56
2023-04-29T11:07:29.609Z,13.54
2023-04-29T11:08:31.892Z,13.37
2023-04-29T11:09:37.292Z,13.21
2023-04-29T11:10:43.638Z,13.29
2023-04-29T11:12:01.586Z,13.26
2023-04-29T11:13:32.644Z,13.19
2023-04-29T11:14:49.315Z,13.20
2023-04-29T11:16:05.996Z,13.27
2023-04-29T11:17:10.689Z,13.21
2023-04-29T11:18:13.350Z,13.20
2023-04-29T11:19:17.608Z,13.16
2023-04-29T11:20:20.032Z,13.13
2023-04-29T11:21:22.859Z,13.34
2023-04-29T11:22:34.002Z,13.30
2023-04-29T11:23:37.720Z,13.12
2023-04-29T11:25:02.046Z,13.29
2023-04-29T11:26:04.861Z,13.38
2023-04-29T11:27:07.936Z,13.56
2023-04-29T11:28:10.828Z,13.73
2023-04-29T11:29:13.089Z,13.81
2023-04-29T11:30:17.086Z,13.82
2023-04-29T11:31:19.946Z,13.71
2023-04-29T11:32:26.016Z,13.74
2023-04-29T11:33:28.576Z,13.81
2023-04-29T11:34:30.831Z,13.72
2023-04-29T11:35:33.243Z,13.57
2023-04-29T11:36:36.329Z,13.59
2023-04-29T11:37:39.523Z,13.50
2023-04-29T11:38:41.888Z,13.49
2023-04-29T11:39:44.207Z,13.41
2023-04-29T11:40:50.492Z,13.23
2023-04-29T11:41:52.899Z,13.29
2023-04-29T11:42:55.350Z,13.21
2023-04-29T11:43:59.862Z,13.11
2023-04-29T11:45:02.551Z,13.05
2023-04-29T11:46:15.211Z,12.99
2023-04-29T11:47:17.800Z,13.02
2023-04-29T11:48:24.911Z,12.95
2023-04-29T11:49:34.854Z,12.93
2023-04-29T11:50:37.407Z,12.90
2023-04-29T11:51:39.961Z,12.88
2023-04-29T11:52:42.531Z,12.95
2023-04-29T11:53:45.361Z,13.01
2023-04-29T11:54:47.826Z,13.07
2023-04-29T11:55:50.081Z,13.20
2023-04-29T11:56:57.058Z,13.24
2023-04-29T11:58:00.194Z,13.16
2023-04-29T11:59:07.361Z,13.10
2023-04-29T12:00:14.630Z,13.17
2023-04-29T12:01:17.178Z,13.17
2023-04-29T12:02:29.894Z,13.09
2023-04-29T12:03:34.060Z,13.10
2023-04-29T12:04:45.863Z,13.01
2023-04-29T12:05:52.022Z,13.08
2023-04-29T12:06:57.351Z,13.06
2023-04-29T12:07:59.951Z,13.02
2023-04-29T12:09:04.497Z,12.91
2023-04-29T12:10:13.177Z,12.88
2023-04-29T12:11:17.425Z,12.71
2023-04-29T12:12:20.526Z,12.69
2023-04-29T12:13:28.733Z,12.67
2023-04-29T12:14:31.292Z,12.55
2023-04-29T12:15:33.780Z,12.52
2023-04-29T12:16:37.020Z,12.50
2023-04-29T12:17:39.981Z,12.47
2023-04-29T12:18:44.924Z,12.38
2023-04-29T12:19:48.479Z,12.43
2023-04-29T12:20:57.168Z,12.30
2023-04-29T12:22:00.935Z,12.28
2023-04-29T12:23:12.234Z,12.21
2023-04-29T12:24:17.217Z,12.23
2023-04-29T12:25:26.751Z,12.20
2023-04-29T12:26:31.174Z,12.24
2023-04-29T12:27:36.746Z,12.37
2023-04-29T12:28:41.812Z,12.48
2023-04-29T12:29:44.412Z,12.46
2023-04-29T12:30:47.907Z,12.56
2023-04-29T12:31:51.470Z,12.66
2023-04-29T12:32:53.991Z,12.63
2023-04-29T12:33:56.771Z,12.65
2023-04-29T12:34:59.371Z,12.61
2023-04-29T12:36:18.744Z,12.61
2023-04-29T12:37:23.673Z,12.62
2023-04-29T12:38:27.994Z,12.55
2023-04-29T12:39:31.254Z,12.50
2023-04-29T12:40:34.105Z,12.45
2023-04-29T12:41:41.372Z,12.30
2023-04-29T12:42:47.095Z,12.37
2023-04-29T12:43:50.318Z,12.47
2023-04-29T12:44:53.334Z,12.51
2023-04-29T12:46:02.568Z,12.52
2023-04-29T12:47:13.612Z,12.47
2023-04-29T12:48:25.312Z,12.50
2023-04-29T12:49:28.813Z,12.33
2023-04-29T12:50:33.261Z,12.44
2023-04-29T12:51:36.692Z,12.42
2023-04-29T12:52:38.911Z,12.44
2023-04-29T12:53:41.197Z,12.42
2023-04-29T12:54:44.198Z,12.37
2023-04-29T12:55:46.546Z,12.18
2023-04-29T12:56:49.919Z,12.13
2023-04-29T12:57:52.437Z,12.13
2023-04-29T12:58:54.704Z,12.13
2023-04-29T12:59:56.919Z,12.16
2023-04-29T13:00:59.392Z,12.09
2023-04-29T13:02:01.983Z,12.11
2023-04-29T13:03:04.618Z,12.12
2023-04-29T13:04:09.147Z,12.18
2023-04-29T13:05:12.860Z,12.25
2023-04-29T13:06:17.015Z,12.28
2023-04-29T13:07:19.614Z,12.24
2023-04-29T13:08:22.772Z,12.13
2023-04-29T13:09:25.362Z,12.11
2023-04-29T13:10:31.060Z,12.16
2023-04-29T13:11:34.791Z,12.14
2023-04-29T13:12:37.247Z,12.21
2023-04-29T13:13:39.844Z,12.16
2023-04-29T13:14:42.039Z,12.14
2023-04-29T13:15:44.352Z,12.10
2023-04-29T13:16:46.609Z,12.12
2023-04-29T13:17:49.074Z,12.20
2023-04-29T13:19:05.241Z,12.26
2023-04-29T13:20:15.370Z,12.27
2023-04-29T13:21:17.601Z,12.28
2023-04-29T13:22:19.870Z,12.26
2023-04-29T13:23:22.230Z,12.09
2023-04-29T13:24:24.438Z,12.06
2023-04-29T13:25:26.670Z,12.01
2023-04-29T13:26:29.185Z,12.00
2023-04-29T13:27:31.920Z,12.03
2023-04-29T13:28:34.299Z,12.07
2023-04-29T13:29:36.694Z,12.15
2023-04-29T13:30:38.952Z,12.21
2023-04-29T13:31:41.575Z,12.24
2023-04-29T13:32:51.307Z,12.33
2023-04-29T13:33:56.827Z,12.35
2023-04-29T13:34:59.137Z,12.32
2023-04-29T13:36:02.172Z,12.21
2023-04-29T13:37:04.605Z,12.15
2023-04-29T13:38:07.535Z,12.04
2023-04-29T13:39:10.560Z,12.09
2023-04-29T13:40:20.602Z,12.04
2023-04-29T13:41:27.478Z,12.07
2023-04-29T13:42:29.956Z,11.93
2023-04-29T13:43:38.513Z,12.00
2023-04-29T13:44:51.787Z,12.01
2023-04-29T13:45:56.014Z,12.07
2023-04-29T13:46:58.450Z,11.88
2023-04-29T13:49:29.141Z,11.94
2023-04-29T13:51:04.956Z,12.00
2023-04-29T13:54:53.362Z,11.99
2023-04-29T13:59:56.442Z,11.97
2023-04-29T14:03:09.022Z,12.21
2023-04-29T14:04:11.724Z,12.33
2023-04-29T14:05:14.520Z,12.32
2023-04-29T14:06:16.865Z,12.37
2023-04-29T14:07:19.337Z,12.37
2023-04-29T14:08:21.521Z,12.22
2023-04-29T14:09:24.346Z,12.24
2023-04-29T14:10:26.869Z,12.26
2023-04-29T14:11:29.181Z,12.28
2023-04-29T14:12:31.631Z,12.30
2023-04-29T14:14:00.206Z,12.30
2023-04-29T14:15:02.874Z,12.27
2023-04-29T14:16:07.125Z,12.25
2023-04-29T14:17:09.545Z,12.30
2023-04-29T14:18:12.183Z,12.22
2023-04-29T14:19:14.710Z,12.34
2023-04-29T14:20:16.926Z,12.45